createdAt,value
2018-09-19T00:01:22.593Z,99.90
2018-09-19T00:03:51.168Z,99.90
2018-09-19T00:06:19.689Z,99.90
2018-09-19T00:08:48.246Z,99.90
2018-09-19T00:11:16.769Z,99.90
2018-09-19T00:13:45.320Z,99.90
2018-09-19T00:16:13.964Z,99.90
2018-09-19T00:18:42.610Z,99.90
2018-09-19T00:21:11.085Z,99.90
2018-09-19T00:23:39.645Z,99.90
2018-09-19T00:26:08.136Z,99.90
2018-09-19T00:28:36.623Z,99.90
2018-09-19T00:31:05.186Z,99.90
2018-09-19T00:33:33.715Z,99.90
2018-09-19T00:36:02.224Z,99.90
2018-09-19T00:38:30.677Z,99.90
2018-09-19T00:40:59.242Z,99.90
2018-09-19T00:43:27.759Z,99.90
2018-09-19T00:45:56.436Z,99.90
2018-09-19T00:48:24.966Z,99.90
2018-09-19T00:50:53.464Z,99.90
2018-09-19T00:53:22.006Z,99.90
2018-09-19T00:55:50.563Z,99.90
2018-09-19T00:58:19.122Z,99.90
2018-09-19T01:00:47.646Z,99.90
2018-09-19T01:03:16.156Z,99.90
2018-09-19T01:05:44.684Z,99.90
2018-09-19T01:08:13.159Z,99.90
2018-09-19T01:10:42.273Z,99.90
2018-09-19T01:13:10.890Z,99.90
2018-09-19T01:15:39.466Z,99.90
2018-09-19T01:18:07.989Z,99.90
2018-09-19T01:20:36.660Z,99.90
2018-09-19T01:23:05.157Z,99.90
2018-09-19T01:25:33.695Z,99.90
2018-09-19T01:28:02.181Z,99.90
2018-09-19T01:30:30.700Z,99.90
2018-09-19T01:32:59.250Z,99.90
2018-09-19T01:35:27.815Z,99.90
2018-09-19T01:37:56.272Z,99.90
2018-09-19T01:40:24.802Z,99.90
2018-09-19T01:42:53.508Z,99.90
2018-09-19T01:45:22.029Z,99.90
2018-09-19T01:47:50.505Z,99.90
2018-09-19T01:50:19.082Z,99.90
2018-09-19T01:52:47.626Z,99.90
2018-09-19T01:55:16.135Z,99.90
2018-09-19T01:57:44.602Z,99.90
2018-09-19T02:00:13.151Z,99.90
2018-09-19T02:02:41.645Z,99.90
2018-09-19T02:05:10.167Z,99.90
2018-09-19T02:07:38.679Z,99.90
2018-09-19T02:10:07.183Z,99.90
2018-09-19T02:12:35.698Z,99.90
2018-09-19T02:15:04.563Z,99.90
2018-09-19T02:17:33.100Z,99.90
2018-09-19T02:20:01.735Z,99.90
2018-09-19T02:22:30.209Z,99.90
2018-09-19T02:24:58.864Z,99.90
2018-09-19T02:27:27.390Z,99.90
2018-09-19T02:29:55.945Z,99.90
2018-09-19T02:32:24.485Z,99.90
2018-09-19T02:34:53.025Z,99.90
2018-09-19T02:37:21.709Z,99.90
2018-09-19T02:39:50.207Z,99.90
2018-09-19T02:42:19.206Z,99.90
2018-09-19T02:44:47.705Z,99.90
2018-09-19T02:47:16.175Z,99.90
2018-09-19T02:49:44.733Z,99.90
2018-09-19T02:52:13.253Z,99.90
2018-09-19T02:54:41.779Z,99.90
2018-09-19T02:57:10.363Z,99.90
2018-09-19T02:59:39.105Z,99.90
2018-09-19T03:02:07.668Z,99.90
2018-09-19T03:04:36.290Z,99.90
2018-09-19T03:07:04.775Z,99.90
2018-09-19T03:09:33.543Z,99.90
2018-09-19T03:12:02.232Z,99.90
2018-09-19T03:14:30.762Z,99.90
2018-09-19T03:16:59.348Z,99.90
2018-09-19T03:19:27.972Z,99.90
2018-09-19T03:21:56.465Z,99.90
2018-09-19T03:24:25.100Z,99.90
2018-09-19T03:26:53.647Z,99.90
2018-09-19T03:29:22.162Z,99.90
2018-09-19T03:31:50.611Z,99.90
2018-09-19T03:34:19.101Z,99.90
2018-09-19T03:36:47.599Z,99.90
2018-09-19T03:39:16.082Z,99.90
2018-09-19T03:41:44.554Z,99.90
2018-09-19T03:44:13.721Z,99.90
2018-09-19T03:46:42.810Z,99.90
2018-09-19T03:49:11.344Z,99.90
2018-09-19T03:51:40.111Z,99.90
2018-09-19T03:54:10.139Z,99.90
2018-09-19T03:56:38.795Z,99.90
2018-09-19T05:09:31.593Z,99.90
2018-09-19T05:12:00.069Z,99.90
2018-09-19T05:14:28.557Z,99.90
2018-09-19T05:16:57.056Z,99.90
2018-09-19T05:19:25.557Z,99.90
2018-09-19T05:21:54.053Z,99.90
2018-09-19T05:24:22.589Z,99.90
2018-09-19T05:26:51.041Z,99.90
2018-09-19T05:29:19.472Z,99.90
2018-09-19T05:31:48.309Z,99.90
2018-09-19T05:34:16.705Z,99.90
2018-09-19T05:36:45.178Z,99.90
2018-09-19T05:39:13.741Z,99.90
2018-09-19T05:41:42.214Z,99.90
2018-09-19T05:44:10.778Z,99.90
2018-09-19T05:46:39.371Z,99.90
2018-09-19T05:49:07.840Z,99.90
2018-09-19T05:51:36.366Z,99.90
2018-09-19T05:54:04.847Z,99.90
2018-09-19T05:56:33.332Z,99.90
2018-09-19T05:59:01.822Z,99.90
2018-09-19T06:01:30.329Z,99.90
2018-09-19T06:03:58.865Z,99.90
2018-09-19T06:06:27.465Z,99.90
2018-09-19T06:08:55.950Z,99.90
2018-09-19T06:11:24.453Z,99.90
2018-09-19T06:13:52.978Z,99.90
2018-09-19T06:16:21.525Z,99.90
2018-09-19T06:18:50.130Z,99.90
2018-09-19T06:21:18.667Z,99.90
2018-09-19T06:23:47.189Z,99.90
2018-09-19T06:26:15.741Z,99.90
2018-09-19T06:28:44.237Z,99.90
2018-09-19T06:31:12.722Z,99.90
2018-09-19T06:33:41.199Z,99.90
2018-09-19T06:36:09.748Z,99.90
2018-09-19T06:38:38.316Z,99.90
2018-09-19T06:41:06.887Z,99.90
2018-09-19T06:43:35.420Z,99.90
2018-09-19T06:46:03.961Z,99.90
2018-09-19T06:48:33.546Z,99.90
2018-09-19T06:51:02.106Z,99.90
2018-09-19T06:53:30.601Z,99.90
2018-09-19T06:55:59.151Z,99.90
2018-09-19T06:58:27.693Z,99.90
2018-09-19T07:00:56.174Z,99.90
2018-09-19T07:03:24.803Z,99.90
2018-09-19T07:05:53.340Z,99.90
2018-09-19T07:08:21.857Z,99.90
2018-09-19T07:10:50.401Z,99.90
2018-09-19T07:13:18.898Z,99.70
2018-09-19T07:15:47.421Z,99.00
2018-09-19T07:18:16.626Z,99.00
2018-09-19T07:20:45.102Z,98.30
2018-09-19T07:23:13.601Z,98.50
2018-09-19T07:25:42.807Z,97.40
2018-09-19T07:28:11.320Z,97.80
2018-09-19T07:30:39.860Z,98.00
2018-09-19T07:33:08.371Z,96.90
2018-09-19T07:35:36.914Z,97.20
2018-09-19T07:38:05.585Z,97.00
2018-09-19T07:40:34.155Z,96.30
2018-09-19T07:43:02.650Z,95.30
2018-09-19T07:45:31.146Z,96.10
2018-09-19T07:47:59.651Z,95.40
2018-09-19T07:50:28.132Z,95.20
2018-09-19T07:53:00.898Z,94.60
2018-09-19T07:55:29.618Z,92.90
2018-09-19T07:57:58.086Z,92.40
2018-09-19T08:00:26.696Z,91.90
2018-09-19T08:02:55.155Z,92.10
2018-09-19T08:05:25.547Z,91.40
2018-09-19T08:07:54.144Z,90.70
2018-09-19T08:10:22.998Z,91.50
2018-09-19T08:12:51.560Z,91.10
2018-09-19T08:15:20.253Z,91.80
2018-09-19T08:17:48.783Z,91.50
2018-09-19T08:20:17.297Z,89.60
2018-09-19T08:22:45.840Z,89.50
2018-09-19T08:25:14.383Z,88.90
2018-09-19T08:27:42.954Z,88.90
2018-09-19T08:30:11.459Z,87.30
2018-09-19T08:32:40.037Z,84.10
2018-09-19T08:35:09.623Z,84.10
2018-09-19T08:37:38.142Z,82.20
2018-09-19T08:40:06.725Z,81.60
2018-09-19T08:42:35.277Z,84.40
2018-09-19T08:45:03.815Z,83.70
2018-09-19T08:47:32.313Z,83.50
2018-09-19T08:50:00.859Z,79.80
2018-09-19T08:52:29.345Z,79.90
2018-09-19T08:54:57.852Z,82.50
2018-09-19T08:57:26.590Z,81.80
2018-09-19T08:59:55.065Z,83.40
2018-09-19T09:02:23.590Z,81.10
2018-09-19T09:04:52.110Z,78.90
2018-09-19T09:07:20.705Z,81.60
2018-09-19T09:09:49.187Z,76.50
2018-09-19T09:12:17.885Z,79.30
2018-09-19T09:14:46.368Z,77.10
2018-09-19T09:17:14.924Z,75.60
2018-09-19T09:19:43.462Z,76.20
2018-09-19T09:22:11.976Z,77.20
2018-09-19T09:24:40.504Z,76.00
2018-09-19T09:27:09.162Z,78.90
2018-09-19T09:29:37.602Z,78.00
2018-09-19T09:32:06.289Z,77.30
2018-09-19T09:34:34.777Z,76.50
2018-09-19T09:37:03.356Z,76.40
2018-09-19T09:39:31.837Z,74.80
2018-09-19T09:42:00.348Z,75.70
2018-09-19T09:44:28.897Z,75.50
2018-09-19T09:46:57.476Z,74.30
2018-09-19T09:49:27.704Z,72.50
2018-09-19T09:51:56.226Z,77.90
2018-09-19T09:54:24.741Z,75.40
2018-09-19T09:56:53.261Z,72.90
2018-09-19T09:59:21.797Z,71.70
2018-09-19T10:01:50.273Z,74.20
2018-09-19T10:04:18.857Z,75.60
2018-09-19T10:06:47.356Z,75.60
2018-09-19T10:09:15.842Z,73.60
2018-09-19T10:11:44.384Z,73.40
2018-09-19T10:14:12.914Z,73.90
2018-09-19T10:16:41.674Z,72.80
2018-09-19T10:19:10.240Z,72.50
2018-09-19T10:21:38.962Z,72.10
2018-09-19T10:24:07.553Z,74.20
2018-09-19T10:26:36.540Z,70.90
2018-09-19T10:29:05.161Z,74.50
2018-09-19T10:31:33.743Z,74.90
2018-09-19T10:34:02.324Z,71.40
2018-09-19T10:36:30.862Z,70.90
2018-09-19T10:38:59.387Z,71.50
2018-09-19T10:41:27.973Z,71.60
2018-09-19T10:43:56.566Z,70.90
2018-09-19T10:46:25.081Z,70.50
2018-09-19T10:48:53.737Z,71.70
2018-09-19T10:51:22.314Z,69.00
2018-09-19T10:53:50.895Z,68.10
2018-09-19T10:56:19.425Z,66.40
2018-09-19T10:58:47.937Z,64.70
2018-09-19T11:05:14.997Z,66.60
2018-09-19T11:07:44.372Z,67.80
2018-09-19T11:10:12.923Z,63.60
2018-09-19T11:12:41.458Z,65.70
2018-09-19T11:15:10.002Z,67.70
2018-09-19T11:17:38.558Z,65.20
2018-09-19T11:20:07.124Z,66.40
2018-09-19T11:22:35.647Z,64.30
2018-09-19T11:25:04.560Z,63.70
2018-09-19T11:27:33.179Z,65.40
2018-09-19T11:30:01.772Z,64.80
2018-09-19T11:32:30.380Z,68.40
2018-09-19T11:34:59.234Z,64.60
2018-09-19T11:37:28.085Z,68.30
2018-09-19T11:39:56.641Z,65.70
2018-09-19T11:42:25.877Z,64.70
2018-09-19T11:44:55.083Z,63.30
2018-09-19T11:47:23.613Z,65.80
2018-09-19T11:49:52.117Z,63.90
2018-09-19T11:52:21.293Z,66.30
2018-09-19T11:54:49.790Z,66.60
2018-09-19T11:57:18.302Z,63.80
2018-09-19T11:59:46.798Z,62.70
2018-09-19T12:02:15.301Z,63.40
2018-09-19T12:04:43.985Z,62.40
2018-09-19T12:07:12.615Z,64.30
2018-09-19T12:09:41.878Z,63.80
2018-09-19T12:12:10.458Z,64.50
2018-09-19T12:14:38.973Z,62.50
2018-09-19T12:17:07.604Z,64.40
2018-09-19T12:19:36.227Z,66.00
2018-09-19T12:22:04.744Z,66.10
2018-09-19T12:24:33.272Z,64.10
2018-09-19T12:27:01.776Z,65.50
2018-09-19T12:29:30.299Z,64.20
2018-09-19T12:31:58.828Z,62.70
2018-09-19T12:34:27.790Z,62.50
2018-09-19T12:36:56.338Z,61.70
2018-09-19T12:39:24.849Z,63.90
2018-09-19T12:41:53.451Z,64.00
2018-09-19T12:44:22.606Z,62.30
2018-09-19T12:46:51.093Z,61.30
2018-09-19T12:49:19.674Z,64.30
2018-09-19T12:51:48.271Z,64.20
2018-09-19T12:54:16.786Z,64.00
2018-09-19T12:56:45.365Z,62.10
2018-09-19T12:59:13.913Z,61.20
2018-09-19T13:01:43.388Z,60.30
2018-09-19T13:04:11.908Z,61.70
2018-09-19T13:06:40.419Z,61.50
2018-09-19T13:09:11.460Z,61.10
2018-09-19T13:11:40.422Z,64.90
2018-09-19T13:14:09.012Z,63.40
2018-09-19T13:16:38.448Z,67.50
2018-09-19T13:19:07.021Z,63.40
2018-09-19T13:21:35.518Z,63.10
2018-09-19T13:24:04.121Z,64.60
2018-09-19T13:26:32.901Z,62.50
2018-09-19T13:29:02.004Z,61.40
2018-09-19T13:31:31.224Z,58.30
2018-09-19T13:34:00.420Z,58.80
2018-09-19T13:36:28.957Z,62.20
2018-09-19T13:38:57.810Z,61.90
2018-09-19T13:41:26.396Z,63.50
2018-09-19T13:43:54.953Z,61.30
2018-09-19T13:46:23.829Z,61.60
2018-09-19T13:48:57.046Z,64.30
2018-09-19T13:51:25.822Z,66.50
2018-09-19T13:53:54.327Z,61.60
2018-09-19T13:56:22.934Z,63.30
2018-09-19T13:58:51.579Z,63.20
2018-09-19T14:01:20.077Z,62.90
2018-09-19T14:03:48.648Z,63.30
2018-09-19T14:06:18.057Z,65.00
2018-09-19T14:08:46.665Z,64.80
2018-09-19T14:11:15.270Z,66.40
2018-09-19T14:13:43.797Z,63.00
2018-09-19T14:16:12.354Z,63.00
2018-09-19T14:18:40.944Z,65.70
2018-09-19T14:21:09.478Z,67.00
2018-09-19T14:23:38.011Z,66.60
2018-09-19T14:26:06.685Z,66.50
2018-09-19T14:28:35.275Z,64.10
2018-09-19T14:31:03.866Z,64.30
2018-09-19T14:33:32.465Z,65.80
2018-09-19T14:36:01.059Z,64.70
2018-09-19T14:38:29.605Z,63.80
2018-09-19T14:40:58.110Z,65.10
2018-09-19T14:43:26.642Z,63.40
2018-09-19T14:45:55.192Z,66.30
2018-09-19T14:48:23.977Z,65.90
2018-09-19T14:50:52.501Z,67.10
2018-09-19T14:53:21.029Z,67.90
2018-09-19T14:55:50.464Z,68.30
2018-09-19T14:58:19.401Z,67.50
2018-09-19T15:00:48.201Z,68.20
2018-09-19T15:03:16.692Z,65.40
2018-09-19T15:05:45.238Z,66.60
2018-09-19T15:08:13.773Z,67.90
2018-09-19T15:10:42.278Z,67.90
2018-09-19T15:13:11.009Z,69.10
2018-09-19T15:15:39.630Z,68.90
2018-09-19T15:18:08.140Z,67.70
2018-09-19T15:20:36.773Z,68.10
2018-09-19T15:23:05.330Z,65.70
2018-09-19T15:25:33.818Z,68.00
2018-09-19T15:28:02.451Z,66.60
2018-09-19T15:30:30.974Z,66.50
2018-09-19T15:32:59.518Z,67.30
2018-09-19T15:35:27.996Z,66.70
2018-09-19T15:37:56.733Z,67.00
2018-09-19T15:40:25.270Z,67.50
2018-09-19T15:42:53.887Z,67.60
2018-09-19T15:45:22.404Z,68.20
2018-09-19T15:47:51.933Z,70.00
2018-09-19T15:50:20.472Z,69.20
2018-09-19T15:52:48.956Z,69.20
2018-09-19T15:55:17.569Z,70.30
2018-09-19T15:57:46.237Z,70.30
2018-09-19T16:00:15.403Z,70.30
2018-09-19T16:02:43.906Z,70.20
2018-09-19T16:05:12.442Z,71.40
2018-09-19T16:07:41.010Z,72.00
2018-09-19T16:10:10.611Z,72.30
2018-09-19T16:12:39.291Z,72.70
2018-09-19T16:15:07.803Z,72.80
2018-09-19T16:17:36.297Z,73.20
2018-09-19T16:20:04.810Z,74.10
2018-09-19T16:22:33.375Z,74.70
2018-09-19T16:25:01.940Z,74.40
2018-09-19T16:27:30.450Z,74.90
2018-09-19T16:29:59.056Z,75.20
2018-09-19T16:32:27.577Z,75.90
2018-09-19T16:34:56.536Z,76.50
2018-09-19T16:37:25.085Z,77.10
2018-09-19T16:39:53.626Z,77.20
2018-09-19T16:42:22.235Z,77.00
2018-09-19T16:44:50.713Z,76.60
2018-09-19T16:47:19.267Z,76.70
2018-09-19T16:49:47.801Z,76.70
2018-09-19T16:52:16.469Z,77.20
2018-09-19T16:54:45.082Z,77.20
2018-09-19T16:57:13.534Z,77.10
2018-09-19T16:59:42.011Z,77.00
2018-09-19T17:02:10.537Z,76.90
2018-09-19T17:04:39.033Z,77.30
2018-09-19T17:07:07.545Z,77.50
2018-09-19T17:09:36.098Z,77.30
2018-09-19T17:12:04.733Z,77.40
2018-09-19T17:14:33.902Z,77.60
2018-09-19T17:17:02.692Z,77.50
2018-09-19T17:19:31.221Z,78.00
2018-09-19T17:21:59.737Z,78.00
2018-09-19T17:24:28.198Z,78.40
2018-09-19T17:26:56.713Z,78.40
2018-09-19T17:29:25.235Z,78.10
2018-09-19T17:31:54.042Z,78.80
2018-09-19T17:34:22.533Z,80.60
2018-09-19T17:36:51.125Z,81.50
2018-09-19T17:39:19.661Z,82.20
2018-09-19T17:41:48.219Z,82.70
2018-09-19T17:44:16.748Z,82.80
2018-09-19T17:46:45.284Z,83.00
2018-09-19T17:49:13.754Z,83.00
2018-09-19T17:51:42.293Z,83.40
2018-09-19T17:54:10.757Z,83.80
2018-09-19T17:56:39.276Z,84.70
2018-09-19T17:59:07.782Z,85.10
2018-09-19T18:01:36.345Z,85.70
2018-09-19T18:04:04.876Z,85.90
2018-09-19T18:06:33.410Z,85.90
2018-09-19T18:09:02.026Z,86.20
2018-09-19T18:11:30.631Z,86.50
2018-09-19T18:13:59.161Z,86.80
2018-09-19T18:16:27.705Z,87.30
2018-09-19T18:18:56.333Z,88.10
2018-09-19T18:21:24.906Z,89.20
2018-09-19T18:23:54.182Z,88.80
2018-09-19T18:26:22.737Z,90.00
2018-09-19T18:28:51.270Z,90.20
2018-09-19T18:31:19.857Z,90.60
2018-09-19T18:33:48.434Z,90.90
2018-09-19T18:36:16.961Z,91.30
2018-09-19T18:38:46.146Z,91.60
2018-09-19T18:41:14.717Z,91.80
2018-09-19T18:43:43.197Z,92.10
2018-09-19T18:46:11.745Z,92.40
2018-09-19T18:48:40.257Z,92.50
2018-09-19T18:51:10.243Z,92.60
2018-09-19T18:53:39.550Z,92.80
2018-09-19T18:56:08.321Z,93.10
2018-09-19T18:58:36.825Z,93.60
2018-09-19T19:01:05.369Z,94.20
2018-09-19T19:03:33.958Z,94.40
2018-09-19T19:06:03.281Z,94.70
2018-09-19T19:08:31.789Z,94.80
2018-09-19T19:11:00.483Z,95.10
2018-09-19T19:13:29.164Z,95.50
2018-09-19T19:15:57.821Z,95.80
2018-09-19T19:18:26.385Z,95.80
2018-09-19T19:20:54.929Z,95.80
2018-09-19T19:23:23.463Z,96.10
2018-09-19T19:25:52.006Z,96.50
2018-09-19T19:28:20.560Z,97.00
2018-09-19T19:30:49.682Z,97.40
2018-09-19T19:33:18.229Z,97.80
2018-09-19T19:35:46.814Z,97.90
2018-09-19T19:38:15.377Z,98.70
2018-09-19T19:40:43.917Z,98.90
2018-09-19T19:43:12.447Z,99.20
2018-09-19T19:45:41.433Z,99.70
2018-09-19T19:48:09.961Z,99.90
2018-09-19T19:50:38.509Z,99.90
2018-09-19T19:53:07.103Z,99.90
2018-09-19T19:55:35.865Z,99.90
2018-09-19T19:58:04.446Z,99.90
2018-09-19T20:00:33.553Z,99.90
2018-09-19T20:03:02.104Z,99.90
2018-09-19T20:05:30.766Z,99.90
2018-09-19T20:07:59.277Z,99.90
2018-09-19T20:10:27.801Z,99.90
2018-09-19T20:12:56.318Z,99.90
2018-09-19T20:15:25.073Z,99.90
2018-09-19T20:17:53.692Z,99.90
2018-09-19T20:20:22.249Z,99.90
2018-09-19T20:22:50.803Z,99.90
2018-09-19T20:25:19.293Z,99.90
2018-09-19T20:27:47.841Z,99.90
2018-09-19T20:30:16.401Z,99.90
2018-09-19T20:32:44.906Z,99.90
2018-09-19T20:35:13.415Z,99.90
2018-09-19T20:37:41.994Z,99.90
2018-09-19T20:40:10.526Z,99.90
2018-09-19T20:42:38.998Z,99.90
2018-09-19T20:45:08.186Z,99.90
2018-09-19T20:47:36.685Z,99.90
2018-09-19T20:50:05.275Z,99.90
2018-09-19T20:52:33.822Z,99.90
2018-09-19T20:55:02.652Z,99.90
2018-09-19T20:57:32.035Z,99.90
2018-09-19T21:00:01.233Z,99.90
2018-09-19T21:02:29.720Z,99.90
2018-09-19T21:04:58.266Z,99.90
2018-09-19T21:07:28.007Z,99.90
2018-09-19T21:09:56.479Z,99.90
2018-09-19T21:12:25.054Z,99.90
2018-09-19T21:14:53.905Z,99.90
2018-09-19T21:17:23.290Z,99.90
2018-09-19T21:19:51.894Z,99.90
2018-09-19T21:22:20.494Z,99.90
2018-09-19T21:24:48.832Z,99.90
2018-09-19T21:27:17.329Z,99.90
2018-09-19T21:29:46.503Z,99.90
2018-09-19T21:32:15.614Z,99.90
2018-09-19T21:34:44.254Z,99.90
2018-09-19T21:37:12.937Z,99.90
2018-09-19T21:39:41.751Z,99.90
2018-09-19T21:42:10.243Z,99.90
2018-09-19T21:44:38.814Z,99.90
2018-09-19T21:47:07.986Z,99.90
2018-09-19T21:49:36.524Z,99.90
2018-09-19T21:52:05.229Z,99.90
2018-09-19T21:54:34.582Z,99.90
2018-09-19T21:57:03.066Z,99.90
2018-09-19T21:59:31.763Z,99.90
2018-09-19T22:02:01.350Z,99.90
2018-09-19T22:04:29.986Z,99.90
2018-09-19T22:06:58.746Z,99.90
2018-09-19T22:09:27.320Z,99.90
2018-09-19T22:11:56.153Z,99.90
2018-09-19T22:14:25.488Z,99.90
2018-09-19T22:16:54.798Z,99.90
2018-09-19T22:19:23.321Z,99.90
2018-09-19T22:21:52.629Z,99.90
2018-09-19T22:24:21.518Z,99.90
2018-09-19T22:26:50.314Z,99.90
2018-09-19T22:29:20.097Z,99.90
2018-09-19T22:31:48.966Z,99.90
2018-09-19T22:34:17.459Z,99.90
2018-09-19T22:36:45.970Z,99.90
2018-09-19T22:39:14.478Z,99.90
2018-09-19T22:41:43.073Z,99.90
2018-09-19T22:44:11.558Z,99.90
2018-09-19T22:46:40.204Z,99.90
2018-09-19T22:49:09.105Z,99.90
2018-09-19T22:51:37.941Z,99.90
2018-09-19T22:54:08.053Z,99.90
2018-09-19T22:56:37.801Z,99.90
2018-09-19T22:59:06.711Z,99.90
2018-09-19T23:01:35.253Z,99.90
2018-09-19T23:04:03.819Z,99.90
2018-09-19T23:06:32.322Z,99.90
2018-09-19T23:09:01.104Z,99.90
2018-09-19T23:11:29.861Z,99.90
2018-09-19T23:13:58.617Z,99.90
2018-09-19T23:16:27.264Z,99.90
2018-09-19T23:18:55.738Z,99.90
2018-09-19T23:21:24.209Z,99.90
2018-09-19T23:23:52.808Z,99.90
2018-09-19T23:26:21.526Z,99.90
2018-09-19T23:28:49.997Z,99.90
2018-09-19T23:31:19.273Z,99.90
2018-09-19T23:33:48.841Z,99.90
2018-09-19T23:36:17.387Z,99.90
2018-09-19T23:38:46.601Z,99.90
2018-09-19T23:41:15.407Z,99.90
2018-09-19T23:43:44.148Z,99.90
2018-09-19T23:46:12.898Z,99.90
2018-09-19T23:48:42.250Z,99.90
2018-09-19T23:51:10.868Z,99.90
2018-09-19T23:53:39.493Z,99.90
2018-09-19T23:56:08.101Z,99.90
2018-09-19T23:58:36.802Z,99.90
